Time;durP1;ratioP1;P1;durP2;ratioP2;P2;SDS_P1;SDS_P2;PMS_P1;PMS_P2;Temp;Humidity;BMP_temperature;BMP_pressure;BME280_temperature;BME280_humidity;BME280_pressure;Samples;Min_cycle;Max_cycle;Signal;HPM_P1;HPM_P2
2022/09/12 00:01:26;;;;;;;11.10;9.60;;;;;;;;;;5031684;28;20554;-66
2022/09/12 00:03:53;;;;;;;7.43;6.72;;;;;;;;;;5029409;28;20534;-66
2022/09/12 00:06:24;;;;;;;7.28;6.57;;;;;;;;;;5031784;28;20048;-66
2022/09/12 00:08:50;;;;;;;7.13;6.45;;;;;;;;;;5031440;28;20502;-66
2022/09/12 00:11:17;;;;;;;8.05;7.25;;;;;;;;;;5031333;28;20049;-66
2022/09/12 00:13:43;;;;;;;6.88;5.85;;;;;;;;;;5028612;28;20034;-66
2022/09/12 00:16:20;;;;;;;8.18;6.28;;;;;;;;;;5031245;28;20500;-66
2022/09/12 00:18:46;;;;;;;10.07;7.90;;;;;;;;;;5030831;28;20077;-66
2022/09/12 00:21:12;;;;;;;10.20;9.18;;;;;;;;;;5031522;28;20046;-66
2022/09/12 00:23:38;;;;;;;9.27;8.38;;;;;;;;;;5030806;28;20033;-66
2022/09/12 00:26:05;;;;;;;9.50;8.50;;;;;;;;;;5030052;28;20517;-66
2022/09/12 00:28:32;;;;;;;8.35;7.28;;;;;;;;;;5027467;28;20045;-66
2022/09/12 00:30:59;;;;;;;9.13;7.63;;;;;;;;;;5031566;28;20048;-66
2022/09/12 00:33:25;;;;;;;10.35;8.65;;;;;;;;;;5029378;28;20056;-66
2022/09/12 00:35:52;;;;;;;8.15;7.35;;;;;;;;;;5027823;28;20116;-66
2022/09/12 00:38:18;;;;;;;8.80;7.22;;;;;;;;;;5030524;28;20172;-66
2022/09/12 00:40:44;;;;;;;8.20;7.05;;;;;;;;;;5028426;28;20052;-66
2022/09/12 00:43:15;;;;;;;8.27;7.40;;;;;;;;;;5029430;28;20124;-66
2022/09/12 00:45:41;;;;;;;12.07;8.27;;;;;;;;;;5023450;28;20042;-66
2022/09/12 00:48:16;;;;;;;8.13;7.28;;;;;;;;;;5030763;28;20057;-66
2022/09/12 00:50:41;;;;;;;6.93;6.22;;;;;;;;;;5028462;28;20048;-66
2022/09/12 00:53:08;;;;;;;8.13;6.57;;;;;;;;;;5030868;28;20037;-66
2022/09/12 00:55:36;;;;;;;8.30;6.88;;;;;;;;;;5030781;28;20044;-66
2022/09/12 00:58:08;;;;;;;8.75;7.00;;;;;;;;;;5028799;28;20377;-66
2022/09/12 01:00:34;;;;;;;10.75;9.30;;;;;;;;;;5023929;28;20044;-66
2022/09/12 01:03:04;;;;;;;7.63;6.20;;;;;;;;;;5031161;28;20047;-66
2022/09/12 01:05:30;;;;;;;9.98;6.60;;;;;;;;;;5027091;28;20037;-66
2022/09/12 01:07:56;;;;;;;15.82;12.63;;;;;;;;;;5028862;28;20041;-66
2022/09/12 01:10:23;;;;;;;13.85;11.38;;;;;;;;;;5030929;28;20050;-66
2022/09/12 01:12:49;;;;;;;16.83;12.30;;;;;;;;;;5029991;28;20496;-66
2022/09/12 01:15:15;;;;;;;9.57;7.50;;;;;;;;;;5026401;28;20379;-65
2022/09/12 01:17:59;;;;;;;9.43;7.65;;;;;;;;;;5029954;28;20048;-66
2022/09/12 01:20:37;;;;;;;11.05;9.43;;;;;;;;;;5028332;28;20045;-66
2022/09/12 01:23:03;;;;;;;13.48;11.00;;;;;;;;;;5030635;28;20568;-66
2022/09/12 01:25:48;;;;;;;10.80;9.20;;;;;;;;;;5030514;28;20037;-66
2022/09/12 01:28:17;;;;;;;11.43;8.15;;;;;;;;;;5029973;28;20049;-66
2022/09/12 01:31:01;;;;;;;11.98;9.25;;;;;;;;;;5028681;28;20051;-66
2022/09/12 01:33:35;;;;;;;13.00;10.70;;;;;;;;;;5030042;28;20061;-66
2022/09/12 01:36:01;;;;;;;9.88;8.00;;;;;;;;;;5028179;28;20033;-66
2022/09/12 01:38:39;;;;;;;10.50;8.82;;;;;;;;;;5030087;28;20490;-66
2022/09/12 01:41:05;;;;;;;9.52;8.23;;;;;;;;;;5031299;28;20045;-66
2022/09/12 01:43:34;;;;;;;6.88;6.18;;;;;;;;;;5027393;28;20052;-66
2022/09/12 01:46:01;;;;;;;8.45;7.55;;;;;;;;;;5027997;28;20048;-65
2022/09/12 01:48:30;;;;;;;13.20;8.80;;;;;;;;;;5028836;28;20053;-66
2022/09/12 01:51:18;;;;;;;16.48;11.95;;;;;;;;;;5030207;28;20116;-66
2022/09/12 01:53:48;;;;;;;11.88;9.82;;;;;;;;;;5028573;28;20053;-66
2022/09/12 01:56:14;;;;;;;5.60;4.85;;;;;;;;;;5029923;28;20107;-66
2022/09/12 01:58:43;;;;;;;9.05;5.10;;;;;;;;;;5027937;28;20595;-66
2022/09/12 02:01:29;;;;;;;9.15;4.80;;;;;;;;;;5027715;28;20037;-66
2022/09/12 02:03:58;;;;;;;7.40;5.35;;;;;;;;;;5030016;28;20045;-66
2022/09/12 02:06:36;;;;;;;9.57;6.68;;;;;;;;;;5018655;28;20049;-66
2022/09/12 02:09:06;;;;;;;10.52;7.40;;;;;;;;;;5029296;28;20557;-66
2022/09/12 02:11:33;;;;;;;8.85;6.78;;;;;;;;;;5027462;28;20124;-66
2022/09/12 02:14:09;;;;;;;12.02;8.50;;;;;;;;;;5028561;28;20042;-66
2022/09/12 02:16:38;;;;;;;11.88;9.57;;;;;;;;;;5028762;28;20189;-66
2022/09/12 02:19:10;;;;;;;13.30;10.48;;;;;;;;;;5028396;28;20049;-66
2022/09/12 02:21:37;;;;;;;9.10;6.28;;;;;;;;;;5022307;28;20056;-66
2022/09/12 02:24:05;;;;;;;9.90;8.13;;;;;;;;;;5028080;28;20033;-65
2022/09/12 02:26:34;;;;;;;13.98;9.93;;;;;;;;;;5027239;28;20046;-66
2022/09/12 02:29:00;;;;;;;18.35;12.68;;;;;;;;;;5030028;28;20037;-65
2022/09/12 02:31:32;;;;;;;12.48;8.93;;;;;;;;;;5029629;28;20041;-66
2022/09/12 02:34:04;;;;;;;15.07;11.00;;;;;;;;;;5023311;28;20057;-66
2022/09/12 02:36:49;;;;;;;22.13;14.55;;;;;;;;;;5028128;28;20037;-66
2022/09/12 02:39:20;;;;;;;20.00;13.32;;;;;;;;;;5028906;28;20048;-66
2022/09/12 02:41:52;;;;;;;55.90;16.30;;;;;;;;;;5028465;28;20148;-66
2022/09/12 02:44:19;;;;;;;22.38;14.30;;;;;;;;;;5029455;28;20056;-66
2022/09/12 02:46:50;;;;;;;23.42;13.68;;;;;;;;;;5032668;28;20068;-66
2022/09/12 02:49:16;;;;;;;;;;;;;;;;;;5032509;28;20049;-66
2022/09/12 02:51:42;;;;;;;20.92;13.93;;;;;;;;;;5033225;28;20396;-66
2022/09/12 02:54:09;;;;;;;18.52;13.50;;;;;;;;;;5032362;28;20387;-66
2022/09/12 02:56:35;;;;;;;19.10;14.13;;;;;;;;;;5031112;28;20099;-66
2022/09/12 02:59:03;;;;;;;17.58;12.90;;;;;;;;;;5032339;28;20045;-66
2022/09/12 03:01:35;;;;;;;21.00;14.82;;;;;;;;;;5032666;28;20409;-65
2022/09/12 03:04:13;;;;;;;20.13;14.73;;;;;;;;;;5033302;28;20183;-66
2022/09/12 03:06:46;;;;;;;17.77;13.40;;;;;;;;;;5031041;28;20041;-66
2022/09/12 03:09:16;;;;;;;25.77;16.63;;;;;;;;;;5031015;28;20527;-66
2022/09/12 03:12:00;;;;;;;23.20;15.52;;;;;;;;;;5033370;28;20045;-66
2022/09/12 03:14:29;;;;;;;24.85;17.23;;;;;;;;;;5032640;28;20033;-66
2022/09/12 03:16:55;;;;;;;21.48;15.48;;;;;;;;;;5032383;28;20073;-66
2022/09/12 03:19:33;;;;;;;28.25;18.83;;;;;;;;;;5031185;28;20057;-66
2022/09/12 03:22:05;;;;;;;22.15;16.48;;;;;;;;;;5033130;28;20037;-66
2022/09/12 03:24:36;;;;;;;21.70;15.70;;;;;;;;;;5028103;28;20132;-66
2022/09/12 03:27:02;;;;;;;27.25;17.77;;;;;;;;;;5032940;28;20080;-66
2022/09/12 03:29:29;;;;;;;21.65;15.95;;;;;;;;;;5032771;28;20077;-66
2022/09/12 03:31:56;;;;;;;22.52;16.10;;;;;;;;;;5032799;28;20033;-66
2022/09/12 03:34:23;;;;;;;23.55;17.08;;;;;;;;;;5031717;28;20080;-66
2022/09/12 03:36:49;;;;;;;20.92;15.02;;;;;;;;;;5031717;28;20091;-66
2022/09/12 03:39:16;;;;;;;16.30;11.68;;;;;;;;;;5025714;28;20044;-66
2022/09/12 03:41:42;;;;;;;13.43;9.07;;;;;;;;;;5030661;28;20116;-66
2022/09/12 03:44:08;;;;;;;11.07;9.02;;;;;;;;;;5031873;28;20037;-66
2022/09/12 03:46:34;;;;;;;12.88;9.50;;;;;;;;;;5032256;28;20126;-66
2022/09/12 03:49:00;;;;;;;11.80;9.73;;;;;;;;;;5031942;28;20048;-66
2022/09/12 03:51:26;;;;;;;13.70;9.68;;;;;;;;;;5020482;28;20038;-65
2022/09/12 03:53:52;;;;;;;11.02;8.73;;;;;;;;;;5026489;28;20063;-65
2022/09/12 03:56:18;;;;;;;11.68;9.25;;;;;;;;;;5031230;28;20411;-66
2022/09/12 03:58:44;;;;;;;11.60;8.85;;;;;;;;;;5031411;28;20041;-66
2022/09/12 04:01:15;;;;;;;13.27;8.55;;;;;;;;;;5026476;28;20037;-66
2022/09/12 04:03:42;;;;;;;13.20;8.05;;;;;;;;;;5026855;28;20076;-66
2022/09/12 04:06:09;;;;;;;12.68;8.32;;;;;;;;;;5027279;28;20053;-66
2022/09/12 04:08:36;;;;;;;11.55;8.30;;;;;;;;;;5026040;28;20124;-66
2022/09/12 04:11:03;;;;;;;13.82;8.38;;;;;;;;;;5029190;28;20135;-66
2022/09/12 04:13:29;;;;;;;7.40;6.50;;;;;;;;;;5030396;28;20132;-65
2022/09/12 04:15:59;;;;;;;10.75;7.70;;;;;;;;;;5032195;28;20052;-66
2022/09/12 04:18:25;;;;;;;8.75;6.65;;;;;;;;;;5031318;28;20059;-66
2022/09/12 04:20:51;;;;;;;10.23;7.38;;;;;;;;;;5031623;28;20060;-66
2022/09/12 04:23:17;;;;;;;8.55;6.43;;;;;;;;;;5029414;28;20043;-66
2022/09/12 04:25:43;;;;;;;9.55;7.53;;;;;;;;;;5030265;28;20175;-66
2022/09/12 04:28:09;;;;;;;10.45;7.72;;;;;;;;;;5030018;28;20116;-66
2022/09/12 04:30:35;;;;;;;16.38;10.57;;;;;;;;;;5031917;28;20724;-66
2022/09/12 04:33:01;;;;;;;19.42;12.82;;;;;;;;;;5029651;28;20045;-66
2022/09/12 04:35:27;;;;;;;19.50;13.80;;;;;;;;;;5031727;28;20392;-66
2022/09/12 04:37:53;;;;;;;17.80;12.10;;;;;;;;;;5031730;28;20049;-66
2022/09/12 04:40:19;;;;;;;17.10;12.00;;;;;;;;;;5024995;28;20041;-65
2022/09/12 04:42:45;;;;;;;15.85;11.93;;;;;;;;;;5024942;28;20037;-65
2022/09/12 04:45:12;;;;;;;18.23;12.98;;;;;;;;;;5026713;28;20038;-66
2022/09/12 04:47:38;;;;;;;18.73;12.30;;;;;;;;;;5030579;28;20057;-66
2022/09/12 04:50:04;;;;;;;16.00;11.43;;;;;;;;;;5030272;28;20042;-66
2022/09/12 04:52:30;;;;;;;18.98;12.45;;;;;;;;;;5029369;28;20029;-66
2022/09/12 04:54:56;;;;;;;21.63;14.45;;;;;;;;;;5030537;28;20073;-66
2022/09/12 04:57:22;;;;;;;20.02;15.00;;;;;;;;;;5074753;22;20044;-66
2022/09/12 04:59:48;;;;;;;36.88;17.98;;;;;;;;;;5068948;28;20036;-66
2022/09/12 05:02:15;;;;;;;23.88;16.05;;;;;;;;;;5070634;28;20406;-66
2022/09/12 05:04:41;;;;;;;19.13;13.52;;;;;;;;;;5067396;28;20489;-65
2022/09/12 05:07:07;;;;;;;23.55;15.82;;;;;;;;;;5054555;28;20063;-66
2022/09/12 05:09:33;;;;;;;22.15;16.05;;;;;;;;;;5058012;28;20477;-66
2022/09/12 05:11:59;;;;;;;22.67;16.40;;;;;;;;;;5048524;28;20045;-66
2022/09/12 05:14:25;;;;;;;21.38;16.25;;;;;;;;;;5046564;28;20051;-66
2022/09/12 05:16:51;;;;;;;22.95;15.98;;;;;;;;;;5051398;28;20040;-66
2022/09/12 05:19:17;;;;;;;21.58;16.42;;;;;;;;;;5058938;28;20048;-66
2022/09/12 05:21:43;;;;;;;21.67;16.30;;;;;;;;;;5050542;28;20072;-66
2022/09/12 05:24:10;;;;;;;24.38;17.35;;;;;;;;;;5054581;28;20041;-66
2022/09/12 05:26:36;;;;;;;24.58;16.95;;;;;;;;;;5050699;28;20120;-66
2022/09/12 05:29:03;;;;;;;24.10;17.17;;;;;;;;;;5054855;28;20450;-66
2022/09/12 05:31:29;;;;;;;21.73;15.57;;;;;;;;;;5051004;28;20037;-66
2022/09/12 05:33:56;;;;;;;24.85;17.85;;;;;;;;;;5049672;28;20186;-66
2022/09/12 05:36:23;;;;;;;27.17;18.77;;;;;;;;;;5048253;28;20071;-66
2022/09/12 05:38:49;;;;;;;27.50;19.52;;;;;;;;;;5054734;28;20047;-66
2022/09/12 05:41:17;;;;;;;28.05;18.42;;;;;;;;;;5056032;28;20037;-66
2022/09/12 05:43:44;;;;;;;30.17;20.15;;;;;;;;;;5048236;28;20044;-66
2022/09/12 05:46:20;;;;;;;27.15;18.15;;;;;;;;;;5058345;28;20071;-66
2022/09/12 05:48:47;;;;;;;27.85;19.80;;;;;;;;;;5048392;28;20041;-66
2022/09/12 05:51:17;;;;;;;27.63;18.88;;;;;;;;;;5044626;28;20042;-66
2022/09/12 05:53:44;;;;;;;32.50;21.00;;;;;;;;;;5036061;28;20165;-66
2022/09/12 05:56:11;;;;;;;31.33;20.45;;;;;;;;;;5043120;28;20036;-66
2022/09/12 05:58:38;;;;;;;34.92;21.60;;;;;;;;;;5043424;28;20164;-66
2022/09/12 06:01:06;;;;;;;31.75;20.85;;;;;;;;;;5052424;28;20076;-66
2022/09/12 06:03:33;;;;;;;36.42;22.58;;;;;;;;;;5049648;28;20044;-66
2022/09/12 06:06:03;;;;;;;36.13;23.25;;;;;;;;;;5050362;28;20494;-66
2022/09/12 06:08:29;;;;;;;35.53;22.38;;;;;;;;;;5048133;28;20037;-66
2022/09/12 06:10:59;;;;;;;40.92;24.88;;;;;;;;;;5052340;28;20072;-66
2022/09/12 06:13:25;;;;;;;35.22;24.08;;;;;;;;;;5042101;28;20102;-66
2022/09/12 06:15:51;;;;;;;38.80;24.50;;;;;;;;;;5043960;28;20116;-66
2022/09/12 06:18:17;;;;;;;39.90;24.83;;;;;;;;;;5060857;28;20037;-65
2022/09/12 06:20:43;;;;;;;42.80;25.88;;;;;;;;;;5054820;28;20407;-66
2022/09/12 06:23:09;;;;;;;41.22;26.38;;;;;;;;;;5053583;28;20068;-66
2022/09/12 06:25:35;;;;;;;40.47;25.55;;;;;;;;;;5049128;28;20135;-65
2022/09/12 06:28:01;;;;;;;44.17;26.38;;;;;;;;;;5052251;28;20051;-66
2022/09/12 06:30:27;;;;;;;42.53;27.00;;;;;;;;;;5051064;28;20514;-66
2022/09/12 06:32:55;;;;;;;42.67;27.15;;;;;;;;;;5052557;28;20124;-65
2022/09/12 06:35:22;;;;;;;44.63;27.15;;;;;;;;;;5056101;28;20562;-66
2022/09/12 06:37:48;;;;;;;49.60;28.67;;;;;;;;;;5063733;28;20401;-65
2022/09/12 06:40:14;;;;;;;44.45;27.08;;;;;;;;;;5050034;28;20048;-66
2022/09/12 06:42:40;;;;;;;48.17;28.58;;;;;;;;;;5055655;28;20052;-66
2022/09/12 06:45:07;;;;;;;49.08;29.33;;;;;;;;;;5058960;28;20040;-66
2022/09/12 06:47:33;;;;;;;52.38;29.73;;;;;;;;;;5055215;28;20414;-66
2022/09/12 06:49:59;;;;;;;50.67;29.85;;;;;;;;;;5050766;28;20124;-66
2022/09/12 06:52:25;;;;;;;49.58;29.25;;;;;;;;;;5056445;28;20044;-66
2022/09/12 06:54:51;;;;;;;48.83;29.70;;;;;;;;;;5054493;28;20116;-65
2022/09/12 06:57:17;;;;;;;47.80;29.63;;;;;;;;;;5051125;28;20460;-66
2022/09/12 06:59:43;;;;;;;52.67;30.58;;;;;;;;;;5059169;28;20048;-65
2022/09/12 07:02:09;;;;;;;54.20;30.42;;;;;;;;;;5051346;28;20047;-66
2022/09/12 07:04:35;;;;;;;55.30;31.50;;;;;;;;;;5053980;28;20045;-66
2022/09/12 07:07:02;;;;;;;55.17;30.63;;;;;;;;;;5052534;28;20037;-66
2022/09/12 07:09:29;;;;;;;55.20;31.33;;;;;;;;;;5051269;28;20502;-65
2022/09/12 07:11:55;;;;;;;53.45;31.00;;;;;;;;;;5050935;28;20494;-66
2022/09/12 07:14:21;;;;;;;51.90;31.38;;;;;;;;;;5056532;28;20028;-66
2022/09/12 07:16:47;;;;;;;52.92;30.80;;;;;;;;;;5052456;28;20029;-66
2022/09/12 07:19:13;;;;;;;54.03;30.75;;;;;;;;;;5056885;28;20045;-66
2022/09/12 07:21:40;;;;;;;49.47;30.27;;;;;;;;;;5051159;28;20045;-66
2022/09/12 07:24:07;;;;;;;49.47;29.55;;;;;;;;;;5049077;28;20479;-66
2022/09/12 07:26:34;;;;;;;49.63;29.58;;;;;;;;;;5051716;28;20490;-65
2022/09/12 07:29:00;;;;;;;49.55;29.35;;;;;;;;;;5048731;28;20033;-66
2022/09/12 07:31:27;;;;;;;47.88;29.92;;;;;;;;;;5053867;28;20513;-65
2022/09/12 07:33:53;;;;;;;46.20;28.15;;;;;;;;;;5053290;28;20872;-66
2022/09/12 07:36:21;;;;;;;45.42;27.90;;;;;;;;;;5057155;28;20037;-66
2022/09/12 07:38:47;;;;;;;44.13;27.73;;;;;;;;;;5052735;28;20056;-66
2022/09/12 07:41:14;;;;;;;45.53;27.48;;;;;;;;;;5052530;28;20075;-66
2022/09/12 07:43:41;;;;;;;51.90;29.60;;;;;;;;;;5051382;28;20048;-66
2022/09/12 07:46:07;;;;;;;47.58;27.27;;;;;;;;;;5050752;28;20037;-66
2022/09/12 07:48:33;;;;;;;47.40;28.67;;;;;;;;;;5053321;28;20415;-66
2022/09/12 07:51:00;;;;;;;46.83;27.60;;;;;;;;;;5049528;28;20487;-66
2022/09/12 07:53:27;;;;;;;48.80;28.38;;;;;;;;;;5058410;28;20426;-66
2022/09/12 07:55:56;;;;;;;46.08;27.95;;;;;;;;;;5061156;28;20117;-66
2022/09/12 07:58:22;;;;;;;48.40;27.85;;;;;;;;;;5053334;28;20037;-66
2022/09/12 08:00:49;;;;;;;47.83;27.95;;;;;;;;;;5050065;28;20570;-66
2022/09/12 08:03:15;;;;;;;44.95;26.90;;;;;;;;;;5057674;28;20084;-66
2022/09/12 08:05:41;;;;;;;45.33;26.52;;;;;;;;;;5051367;28;20048;-66
2022/09/12 08:08:07;;;;;;;44.53;26.60;;;;;;;;;;5050647;28;20055;-66
2022/09/12 08:10:33;;;;;;;40.33;25.38;;;;;;;;;;5052048;28;20132;-66
2022/09/12 08:12:59;;;;;;;39.38;24.92;;;;;;;;;;5050466;28;20029;-66
2022/09/12 08:15:25;;;;;;;40.70;24.27;;;;;;;;;;5046318;28;20044;-65
2022/09/12 08:17:51;;;;;;;44.35;24.92;;;;;;;;;;5046363;28;20040;-66
2022/09/12 08:20:17;;;;;;;38.45;24.20;;;;;;;;;;5046788;28;20041;-66
2022/09/12 08:22:43;;;;;;;39.67;25.17;;;;;;;;;;5052239;28;20098;-66
2022/09/12 08:25:10;;;;;;;40.85;25.60;;;;;;;;;;5051495;28;20041;-66
2022/09/12 08:27:36;;;;;;;41.40;24.75;;;;;;;;;;5051084;28;20044;-66
2022/09/12 08:30:04;;;;;;;40.38;24.05;;;;;;;;;;5052267;28;20049;-66
2022/09/12 08:32:30;;;;;;;41.45;23.95;;;;;;;;;;5051555;28;20044;-66
2022/09/12 08:34:56;;;;;;;37.88;23.38;;;;;;;;;;5052491;28;20115;-66
2022/09/12 08:37:22;;;;;;;35.67;22.92;;;;;;;;;;5052305;28;20072;-66
2022/09/12 08:39:48;;;;;;;36.20;22.67;;;;;;;;;;5050830;28;20131;-66
2022/09/12 08:42:21;;;;;;;35.40;21.83;;;;;;;;;;5051074;28;20059;-66
2022/09/12 08:44:50;;;;;;;34.17;22.33;;;;;;;;;;5051213;28;20052;-66
2022/09/12 08:47:23;;;;;;;35.33;22.90;;;;;;;;;;5051836;28;20514;-66
2022/09/12 08:49:50;;;;;;;38.80;23.63;;;;;;;;;;5052094;28;20604;-66
2022/09/12 08:52:18;;;;;;;36.88;23.00;;;;;;;;;;5050379;28;20045;-66
2022/09/12 08:54:45;;;;;;;36.78;23.15;;;;;;;;;;5051695;28;20501;-66
2022/09/12 08:57:11;;;;;;;38.85;24.05;;;;;;;;;;5050185;28;20055;-66
2022/09/12 08:59:39;;;;;;;40.10;23.75;;;;;;;;;;5051468;28;20076;-66
2022/09/12 09:02:20;;;;;;;39.88;24.20;;;;;;;;;;5050870;28;20555;-66
2022/09/12 09:04:50;;;;;;;39.53;24.45;;;;;;;;;;5045215;28;20600;-66
2022/09/12 09:07:25;;;;;;;38.75;23.85;;;;;;;;;;5051626;28;20066;-66
2022/09/12 09:10:12;;;;;;;40.08;23.70;;;;;;;;;;5051335;28;20052;-66
2022/09/12 09:12:44;;;;;;;39.55;23.80;;;;;;;;;;5042659;28;20084;-66
2022/09/12 09:15:20;;;;;;;41.25;24.85;;;;;;;;;;5047933;28;20055;-65
2022/09/12 09:17:55;;;;;;;43.67;26.45;;;;;;;;;;5046769;28;20083;-66
2022/09/12 09:20:45;;;;;;;44.05;25.33;;;;;;;;;;5050336;28;20490;-66
2022/09/12 09:23:11;;;;;;;43.22;25.10;;;;;;;;;;5048521;28;20136;-63
2022/09/12 09:25:57;;;;;;;42.60;24.55;;;;;;;;;;5051847;28;20120;-63
2022/09/12 09:28:33;;;;;;;46.10;26.45;;;;;;;;;;5050993;28;20037;-63
2022/09/12 09:30:59;;;;;;;44.92;26.10;;;;;;;;;;5049415;28;20975;-63
2022/09/12 09:33:27;;;;;;;48.97;26.80;;;;;;;;;;5045568;28;20495;-64
2022/09/12 09:36:05;;;;;;;44.83;25.70;;;;;;;;;;5044793;28;20040;-63
2022/09/12 09:38:38;;;;;;;49.55;27.42;;;;;;;;;;5045768;28;20578;-63
2022/09/12 09:41:24;;;;;;;46.70;26.20;;;;;;;;;;5048786;28;20158;-63
2022/09/12 09:43:50;;;;;;;44.15;26.35;;;;;;;;;;5049098;28;20051;-64
2022/09/12 09:46:16;;;;;;;43.65;25.52;;;;;;;;;;5050226;28;20398;-63
2022/09/12 09:48:47;;;;;;;48.70;27.05;;;;;;;;;;5045904;28;20083;-63
2022/09/12 09:51:15;;;;;;;46.40;25.55;;;;;;;;;;5047635;28;20041;-63
2022/09/12 09:53:45;;;;;;;50.05;27.88;;;;;;;;;;5049586;28;20047;-63
2022/09/12 09:56:26;;;;;;;47.30;27.67;;;;;;;;;;5047380;28;20039;-63
2022/09/12 09:58:52;;;;;;;50.53;26.35;;;;;;;;;;5048532;28;20052;-64
2022/09/12 10:01:19;;;;;;;47.85;26.30;;;;;;;;;;5048944;28;20072;-64
2022/09/12 10:03:50;;;;;;;48.80;26.98;;;;;;;;;;5031040;28;20044;-63
2022/09/12 10:06:22;;;;;;;49.80;27.35;;;;;;;;;;5050424;28;20083;-64
2022/09/12 10:08:49;;;;;;;42.95;25.10;;;;;;;;;;5050538;28;20509;-64
2022/09/12 10:11:14;;;;;;;42.20;24.42;;;;;;;;;;5049992;28;20045;-64
2022/09/12 10:13:42;;;;;;;48.20;26.10;;;;;;;;;;5049131;28;20087;-63
2022/09/12 10:16:19;;;;;;;42.10;24.67;;;;;;;;;;5050807;28;20402;-64
2022/09/12 10:18:45;;;;;;;42.58;24.42;;;;;;;;;;5049329;28;20045;-64
2022/09/12 10:21:22;;;;;;;41.17;23.77;;;;;;;;;;5049563;28;20040;-64
2022/09/12 10:23:52;;;;;;;42.33;24.48;;;;;;;;;;5050856;28;20044;-64
2022/09/12 10:26:19;;;;;;;39.67;23.65;;;;;;;;;;5049931;28;20048;-64
2022/09/12 10:28:53;;;;;;;42.60;24.65;;;;;;;;;;5050269;28;20099;-63
2022/09/12 10:31:27;;;;;;;43.45;24.02;;;;;;;;;;5050613;28;20114;-64
2022/09/12 10:33:54;;;;;;;36.33;23.58;;;;;;;;;;5048509;28;20491;-63
2022/09/12 10:36:22;;;;;;;40.42;22.60;;;;;;;;;;5050703;28;20045;-64
2022/09/12 10:38:56;;;;;;;37.40;22.20;;;;;;;;;;5049900;28;20494;-63
2022/09/12 10:41:22;;;;;;;37.88;21.77;;;;;;;;;;5049589;28;20045;-63
2022/09/12 10:43:49;;;;;;;38.47;22.40;;;;;;;;;;5050524;28;20043;-64
2022/09/12 10:46:15;;;;;;;34.97;21.35;;;;;;;;;;5050752;28;20040;-64
2022/09/12 10:48:44;;;;;;;35.17;21.38;;;;;;;;;;5046774;28;20116;-64
2022/09/12 10:51:29;;;;;;;34.72;20.50;;;;;;;;;;5050417;28;20091;-64
2022/09/12 10:53:57;;;;;;;34.38;21.55;;;;;;;;;;5049682;28;20041;-64
2022/09/12 10:56:23;;;;;;;35.05;20.42;;;;;;;;;;5060076;22;20045;-65
2022/09/12 10:58:52;;;;;;;32.10;19.35;;;;;;;;;;5044894;28;20045;-65
2022/09/12 11:01:28;;;;;;;34.55;22.55;;;;;;;;;;5047614;28;20124;-65
2022/09/12 11:04:17;;;;;;;31.20;19.45;;;;;;;;;;5052826;28;20130;-65
2022/09/12 11:07:02;;;;;;;32.90;20.27;;;;;;;;;;5054224;28;20043;-65
2022/09/12 11:09:47;;;;;;;30.33;19.20;;;;;;;;;;5051444;28;20060;-65
2022/09/12 11:12:13;;;;;;;34.88;20.73;;;;;;;;;;5053160;28;20048;-65
2022/09/12 11:14:42;;;;;;;30.15;18.73;;;;;;;;;;5053521;28;20410;-65
2022/09/12 11:17:18;;;;;;;26.95;17.13;;;;;;;;;;5052225;28;20044;-65
2022/09/12 11:19:56;;;;;;;28.63;17.55;;;;;;;;;;5053500;28;20052;-65
2022/09/12 11:22:30;;;;;;;27.77;18.70;;;;;;;;;;5050517;28;20049;-66
2022/09/12 11:25:14;;;;;;;31.50;18.23;;;;;;;;;;5053276;28;20055;-66
2022/09/12 11:27:59;;;;;;;29.35;18.13;;;;;;;;;;5053886;28;20399;-66
2022/09/12 11:30:26;;;;;;;29.58;19.02;;;;;;;;;;5051898;28;20159;-65
2022/09/12 11:33:14;;;;;;;26.45;17.13;;;;;;;;;;5052747;28;20479;-65
2022/09/12 11:35:45;;;;;;;27.73;15.93;;;;;;;;;;5051676;28;20043;-65
2022/09/12 11:38:14;;;;;;;28.08;17.38;;;;;;;;;;5053310;28;20390;-65
2022/09/12 11:40:46;;;;;;;29.23;16.15;;;;;;;;;;5053145;28;20124;-65
2022/09/12 11:43:20;;;;;;;22.67;14.45;;;;;;;;;;5053587;28;20538;-65
2022/09/12 11:45:47;;;;;;;21.63;12.93;;;;;;;;;;5052428;28;20041;-65
2022/09/12 11:48:17;;;;;;;20.88;12.32;;;;;;;;;;5050716;28;20041;-65
2022/09/12 11:50:43;;;;;;;21.15;13.82;;;;;;;;;;5052609;28;20041;-65
2022/09/12 11:53:16;;;;;;;22.30;13.75;;;;;;;;;;5053379;28;20045;-65
2022/09/12 11:55:54;;;;;;;26.02;14.25;;;;;;;;;;5052047;28;20043;-66
2022/09/12 11:58:23;;;;;;;22.73;14.63;;;;;;;;;;5052787;28;20048;-66
2022/09/12 12:00:52;;;;;;;23.55;13.73;;;;;;;;;;5051688;28;20398;-66
2022/09/12 12:03:34;;;;;;;20.80;13.98;;;;;;;;;;5049055;28;20053;-66
2022/09/12 12:06:12;;;;;;;21.25;12.93;;;;;;;;;;5050680;28;20090;-65
2022/09/12 12:08:41;;;;;;;21.20;13.52;;;;;;;;;;5051707;28;20052;-65
2022/09/12 12:11:08;;;;;;;21.15;12.80;;;;;;;;;;5052445;28;20044;-65
2022/09/12 12:13:34;;;;;;;22.33;14.02;;;;;;;;;;5052743;28;20037;-66
2022/09/12 12:16:12;;;;;;;25.63;13.63;;;;;;;;;;5051178;28;20171;-65
2022/09/12 12:18:38;;;;;;;21.35;13.40;;;;;;;;;;5044634;28;20079;-66
2022/09/12 12:21:23;;;;;;;19.83;13.25;;;;;;;;;;5052227;28;20033;-66
2022/09/12 12:24:03;;;;;;;19.23;12.73;;;;;;;;;;5052893;28;20410;-65
2022/09/12 12:26:38;;;;;;;19.40;12.73;;;;;;;;;;5052242;28;20170;-65
2022/09/12 12:29:05;;;;;;;18.33;11.73;;;;;;;;;;5052043;28;20045;-65
2022/09/12 12:31:31;;;;;;;20.63;12.27;;;;;;;;;;5050784;28;20044;-65
2022/09/12 12:34:01;;;;;;;18.90;12.07;;;;;;;;;;5051672;28;20547;-66
2022/09/12 12:36:35;;;;;;;19.67;13.10;;;;;;;;;;5050109;28;20041;-65
2022/09/12 12:39:21;;;;;;;20.45;12.95;;;;;;;;;;5050905;28;20629;-66
2022/09/12 12:41:47;;;;;;;20.08;13.57;;;;;;;;;;5046051;28;20036;-66
2022/09/12 12:44:31;;;;;;;19.70;13.27;;;;;;;;;;5052055;28;20074;-65
2022/09/12 12:47:08;;;;;;;21.52;13.25;;;;;;;;;;5050818;28;20087;-65
2022/09/12 12:49:34;;;;;;;19.60;12.80;;;;;;;;;;5050852;28;20041;-65
2022/09/12 12:52:00;;;;;;;19.83;12.98;;;;;;;;;;5048756;28;20094;-65
2022/09/12 12:54:29;;;;;;;22.38;11.38;;;;;;;;;;5051028;28;20032;-65
2022/09/12 12:57:15;;;;;;;19.48;13.30;;;;;;;;;;5045659;28;20428;-65
2022/09/12 12:59:47;;;;;;;19.08;12.05;;;;;;;;;;5044178;28;20514;-65
2022/09/12 13:02:24;;;;;;;18.23;11.65;;;;;;;;;;5050520;28;20040;-65
2022/09/12 13:04:50;;;;;;;17.17;10.85;;;;;;;;;;5048543;28;20045;-65
2022/09/12 13:07:25;;;;;;;13.48;9.13;;;;;;;;;;5050571;28;20532;-65
2022/09/12 13:09:52;;;;;;;11.25;7.45;;;;;;;;;;5042062;28;20049;-65
2022/09/12 13:12:23;;;;;;;10.13;6.63;;;;;;;;;;5043443;28;20040;-66
2022/09/12 13:14:57;;;;;;;9.52;7.00;;;;;;;;;;5043841;28;20517;-66
2022/09/12 13:17:26;;;;;;;13.70;8.27;;;;;;;;;;5050387;28;20033;-65
2022/09/12 13:20:04;;;;;;;9.43;7.32;;;;;;;;;;5049683;28;20056;-65
2022/09/12 13:22:38;;;;;;;16.05;9.55;;;;;;;;;;5050765;28;20383;-65
2022/09/12 13:25:17;;;;;;;13.80;8.77;;;;;;;;;;5044130;28;20044;-65
2022/09/12 13:27:56;;;;;;;13.68;8.85;;;;;;;;;;5043362;28;20037;-65
2022/09/12 13:30:22;;;;;;;12.35;8.07;;;;;;;;;;5048766;28;20032;-66
2022/09/12 13:32:48;;;;;;;12.85;8.80;;;;;;;;;;5050491;28;20051;-65
2022/09/12 13:35:37;;;;;;;13.23;8.85;;;;;;;;;;5051505;28;20040;-66
2022/09/12 13:38:10;;;;;;;13.13;8.52;;;;;;;;;;5048215;28;20041;-66
2022/09/12 13:40:43;;;;;;;13.55;8.52;;;;;;;;;;5042986;28;20045;-66
2022/09/12 13:43:14;;;;;;;11.43;8.45;;;;;;;;;;5049749;28;20098;-65
2022/09/12 13:45:40;;;;;;;12.13;8.27;;;;;;;;;;5050304;28;20759;-65
2022/09/12 13:48:11;;;;;;;11.85;7.40;;;;;;;;;;5047792;28;20119;-65
2022/09/12 13:50:57;;;;;;;11.95;7.20;;;;;;;;;;5047900;28;20099;-66
2022/09/12 13:53:24;;;;;;;9.02;7.03;;;;;;;;;;5050948;28;20048;-66
2022/09/12 13:56:00;;;;;;;9.07;6.63;;;;;;;;;;5051003;28;20052;-66
2022/09/12 13:58:27;;;;;;;9.95;7.45;;;;;;;;;;5050631;28;20040;-66
2022/09/12 14:01:05;;;;;;;10.55;7.40;;;;;;;;;;5050850;28;20051;-65
2022/09/12 14:06:23;;;;;;;12.02;7.63;;;;;;;;;;5050418;28;20120;-65
2022/09/12 14:08:50;;;;;;;8.35;7.03;;;;;;;;;;5050488;28;20048;-65
2022/09/12 14:11:27;;;;;;;11.20;7.65;;;;;;;;;;5050559;28;20433;-65
2022/09/12 14:13:54;;;;;;;9.77;8.40;;;;;;;;;;5050717;28;20093;-65
2022/09/12 14:16:22;;;;;;;11.32;7.70;;;;;;;;;;5043772;28;20080;-65
2022/09/12 14:18:50;;;;;;;11.05;6.97;;;;;;;;;;5037348;28;20056;-65
2022/09/12 14:21:32;;;;;;;10.00;7.57;;;;;;;;;;5044678;28;20399;-64
2022/09/12 14:23:59;;;;;;;10.35;6.68;;;;;;;;;;5041887;28;20091;-64
2022/09/12 14:26:26;;;;;;;7.75;5.45;;;;;;;;;;5043530;28;20045;-64
2022/09/12 14:28:52;;;;;;;5.22;4.43;;;;;;;;;;5047093;28;20503;-63
2022/09/12 14:31:22;;;;;;;7.40;4.80;;;;;;;;;;5048140;28;20033;-63
2022/09/12 14:33:48;;;;;;;8.15;5.07;;;;;;;;;;5046162;28;20557;-64
2022/09/12 14:36:30;;;;;;;8.20;5.53;;;;;;;;;;5045059;28;20136;-63
2022/09/12 14:39:01;;;;;;;7.55;4.65;;;;;;;;;;5049271;28;20416;-63
2022/09/12 14:41:29;;;;;;;6.15;4.65;;;;;;;;;;5049059;28;20056;-63